sensor_id;sensor_type;location;lat;lon;timestamp;P1;durP1;ratioP1;P2;durP2;ratioP2
3343;SDS011;1685;53.104;8.228;2022-12-29T00:02:27;6.93;;;6.43;;
3343;SDS011;1685;53.104;8.228;2022-12-29T00:04:54;6.70;;;6.20;;
3343;SDS011;1685;53.104;8.228;2022-12-29T00:07:21;10.00;;;7.30;;
3343;SDS011;1685;53.104;8.228;2022-12-29T00:09:48;7.33;;;6.70;;
3343;SDS011;1685;53.104;8.228;2022-12-29T00:12:15;7.57;;;6.97;;
3343;SDS011;1685;53.104;8.228;2022-12-29T00:14:42;9.77;;;7.17;;
3343;SDS011;1685;53.104;8.228;2022-12-29T00:17:28;7.13;;;6.43;;
3343;SDS011;1685;53.104;8.228;2022-12-29T00:19:55;8.43;;;7.67;;
3343;SDS011;1685;53.104;8.228;2022-12-29T00:22:40;7.90;;;7.20;;
3343;SDS011;1685;53.104;8.228;2022-12-29T00:25:24;7.53;;;6.93;;
3343;SDS011;1685;53.104;8.228;2022-12-29T00:28:08;7.93;;;7.13;;
3343;SDS011;1685;53.104;8.228;2022-12-29T00:30:53;8.47;;;7.77;;
3343;SDS011;1685;53.104;8.228;2022-12-29T00:33:39;9.97;;;9.00;;
3343;SDS011;1685;53.104;8.228;2022-12-29T00:36:23;9.50;;;8.67;;
3343;SDS011;1685;53.104;8.228;2022-12-29T00:38:54;9.13;;;8.40;;
3343;SDS011;1685;53.104;8.228;2022-12-29T00:41:41;15.73;;;9.60;;
3343;SDS011;1685;53.104;8.228;2022-12-29T00:44:25;10.47;;;9.33;;
3343;SDS011;1685;53.104;8.228;2022-12-29T00:46:52;10.53;;;9.53;;
3343;SDS011;1685;53.104;8.228;2022-12-29T00:49:21;11.13;;;10.00;;
3343;SDS011;1685;53.104;8.228;2022-12-29T00:51:56;12.67;;;10.50;;
3343;SDS011;1685;53.104;8.228;2022-12-29T00:54:23;12.73;;;10.40;;
3343;SDS011;1685;53.104;8.228;2022-12-29T00:56:51;12.23;;;10.60;;
3343;SDS011;1685;53.104;8.228;2022-12-29T00:59:18;12.00;;;10.90;;
3343;SDS011;1685;53.104;8.228;2022-12-29T01:01:46;16.73;;;11.03;;
3343;SDS011;1685;53.104;8.228;2022-12-29T01:04:13;12.70;;;10.73;;
3343;SDS011;1685;53.104;8.228;2022-12-29T01:06:42;15.60;;;11.20;;
3343;SDS011;1685;53.104;8.228;2022-12-29T01:09:09;11.37;;;10.37;;
3343;SDS011;1685;53.104;8.228;2022-12-29T01:11:53;14.40;;;11.73;;
3343;SDS011;1685;53.104;8.228;2022-12-29T01:14:21;11.13;;;10.03;;
3343;SDS011;1685;53.104;8.228;2022-12-29T01:16:48;11.20;;;10.20;;
3343;SDS011;1685;53.104;8.228;2022-12-29T01:19:15;12.27;;;11.00;;
3343;SDS011;1685;53.104;8.228;2022-12-29T01:21:44;11.50;;;10.50;;
3343;SDS011;1685;53.104;8.228;2022-12-29T01:24:10;10.37;;;9.47;;
3343;SDS011;1685;53.104;8.228;2022-12-29T01:26:37;11.97;;;9.30;;
3343;SDS011;1685;53.104;8.228;2022-12-29T01:29:04;8.47;;;7.67;;
3343;SDS011;1685;53.104;8.228;2022-12-29T01:31:31;9.57;;;8.77;;
3343;SDS011;1685;53.104;8.228;2022-12-29T01:33:59;9.50;;;8.60;;
3343;SDS011;1685;53.104;8.228;2022-12-29T01:36:25;8.40;;;7.60;;
3343;SDS011;1685;53.104;8.228;2022-12-29T01:38:54;8.43;;;7.73;;
3343;SDS011;1685;53.104;8.228;2022-12-29T01:41:20;9.10;;;8.30;;
3343;SDS011;1685;53.104;8.228;2022-12-29T01:43:48;11.90;;;7.47;;
3343;SDS011;1685;53.104;8.228;2022-12-29T01:46:19;7.77;;;7.10;;
3343;SDS011;1685;53.104;8.228;2022-12-29T01:48:50;9.90;;;7.73;;
3343;SDS011;1685;53.104;8.228;2022-12-29T01:51:18;7.20;;;6.50;;
3343;SDS011;1685;53.104;8.228;2022-12-29T01:53:46;8.07;;;6.30;;
3343;SDS011;1685;53.104;8.228;2022-12-29T01:56:15;6.67;;;6.17;;
3343;SDS011;1685;53.104;8.228;2022-12-29T01:58:44;5.57;;;5.17;;
3343;SDS011;1685;53.104;8.228;2022-12-29T02:01:14;6.10;;;5.60;;
3343;SDS011;1685;53.104;8.228;2022-12-29T02:03:43;6.33;;;5.70;;
3343;SDS011;1685;53.104;8.228;2022-12-29T02:06:10;5.70;;;5.30;;
3343;SDS011;1685;53.104;8.228;2022-12-29T02:08:41;6.23;;;5.63;;
3343;SDS011;1685;53.104;8.228;2022-12-29T02:11:08;7.23;;;5.80;;
3343;SDS011;1685;53.104;8.228;2022-12-29T02:13:36;5.80;;;5.27;;
3343;SDS011;1685;53.104;8.228;2022-12-29T02:16:06;6.20;;;5.70;;
3343;SDS011;1685;53.104;8.228;2022-12-29T02:18:43;6.50;;;5.90;;
3343;SDS011;1685;53.104;8.228;2022-12-29T02:21:39;5.87;;;5.47;;
3343;SDS011;1685;53.104;8.228;2022-12-29T02:24:30;5.50;;;5.17;;
3343;SDS011;1685;53.104;8.228;2022-12-29T02:30:06;5.63;;;5.23;;
3343;SDS011;1685;53.104;8.228;2022-12-29T02:32:41;6.30;;;5.77;;
3343;SDS011;1685;53.104;8.228;2022-12-29T02:35:18;6.30;;;5.70;;
3343;SDS011;1685;53.104;8.228;2022-12-29T02:37:57;6.20;;;5.70;;
3343;SDS011;1685;53.104;8.228;2022-12-29T02:40:31;5.63;;;5.20;;
3343;SDS011;1685;53.104;8.228;2022-12-29T02:43:06;6.60;;;6.00;;
3343;SDS011;1685;53.104;8.228;2022-12-29T02:45:43;7.10;;;6.50;;
3343;SDS011;1685;53.104;8.228;2022-12-29T02:48:18;5.10;;;4.80;;
3343;SDS011;1685;53.104;8.228;2022-12-29T02:50:51;6.17;;;5.13;;
3343;SDS011;1685;53.104;8.228;2022-12-29T02:53:21;6.20;;;5.70;;
3343;SDS011;1685;53.104;8.228;2022-12-29T02:56:04;5.50;;;4.97;;
3343;SDS011;1685;53.104;8.228;2022-12-29T02:58:31;5.40;;;5.00;;
3343;SDS011;1685;53.104;8.228;2022-12-29T03:01:02;5.40;;;4.90;;
3343;SDS011;1685;53.104;8.228;2022-12-29T03:03:45;6.10;;;5.50;;
3343;SDS011;1685;53.104;8.228;2022-12-29T03:06:30;6.00;;;5.50;;
3343;SDS011;1685;53.104;8.228;2022-12-29T03:09:03;5.50;;;5.10;;
3343;SDS011;1685;53.104;8.228;2022-12-29T03:11:38;5.93;;;5.50;;
3343;SDS011;1685;53.104;8.228;2022-12-29T03:14:31;7.17;;;6.60;;
3343;SDS011;1685;53.104;8.228;2022-12-29T03:17:23;6.20;;;5.10;;
3343;SDS011;1685;53.104;8.228;2022-12-29T03:19:57;6.67;;;5.87;;
3343;SDS011;1685;53.104;8.228;2022-12-29T03:22:31;7.13;;;5.50;;
3343;SDS011;1685;53.104;8.228;2022-12-29T03:25:03;5.80;;;5.30;;
3343;SDS011;1685;53.104;8.228;2022-12-29T03:27:36;5.50;;;5.00;;
3343;SDS011;1685;53.104;8.228;2022-12-29T03:30:07;5.80;;;5.40;;
3343;SDS011;1685;53.104;8.228;2022-12-29T03:32:36;4.90;;;4.60;;
3343;SDS011;1685;53.104;8.228;2022-12-29T03:35:08;5.37;;;5.00;;
3343;SDS011;1685;53.104;8.228;2022-12-29T03:37:39;4.80;;;4.50;;
3343;SDS011;1685;53.104;8.228;2022-12-29T03:40:10;4.53;;;4.13;;
3343;SDS011;1685;53.104;8.228;2022-12-29T03:42:37;3.90;;;3.60;;
3343;SDS011;1685;53.104;8.228;2022-12-29T03:45:06;4.20;;;3.90;;
3343;SDS011;1685;53.104;8.228;2022-12-29T03:47:34;4.73;;;4.33;;
3343;SDS011;1685;53.104;8.228;2022-12-29T03:50:01;3.70;;;3.50;;
3343;SDS011;1685;53.104;8.228;2022-12-29T03:52:29;4.07;;;3.73;;
3343;SDS011;1685;53.104;8.228;2022-12-29T03:54:56;3.70;;;3.40;;
3343;SDS011;1685;53.104;8.228;2022-12-29T03:57:23;3.80;;;3.50;;
3343;SDS011;1685;53.104;8.228;2022-12-29T03:59:50;3.50;;;3.30;;
3343;SDS011;1685;53.104;8.228;2022-12-29T04:02:17;4.20;;;3.90;;
3343;SDS011;1685;53.104;8.228;2022-12-29T04:04:44;7.73;;;4.20;;
3343;SDS011;1685;53.104;8.228;2022-12-29T04:07:11;4.60;;;4.13;;
3343;SDS011;1685;53.104;8.228;2022-12-29T04:09:39;5.03;;;4.63;;
3343;SDS011;1685;53.104;8.228;2022-12-29T04:12:06;5.17;;;4.77;;
3343;SDS011;1685;53.104;8.228;2022-12-29T04:14:33;4.90;;;4.50;;
3343;SDS011;1685;53.104;8.228;2022-12-29T04:17:00;5.43;;;5.03;;
3343;SDS011;1685;53.104;8.228;2022-12-29T04:19:27;5.70;;;5.30;;
3343;SDS011;1685;53.104;8.228;2022-12-29T04:21:54;4.47;;;4.10;;
3343;SDS011;1685;53.104;8.228;2022-12-29T04:24:21;4.50;;;4.20;;
3343;SDS011;1685;53.104;8.228;2022-12-29T04:26:49;3.87;;;3.57;;
3343;SDS011;1685;53.104;8.228;2022-12-29T04:29:16;3.67;;;3.37;;
3343;SDS011;1685;53.104;8.228;2022-12-29T04:31:43;3.50;;;3.30;;
3343;SDS011;1685;53.104;8.228;2022-12-29T04:34:10;3.90;;;3.60;;
3343;SDS011;1685;53.104;8.228;2022-12-29T04:36:37;4.30;;;4.00;;
3343;SDS011;1685;53.104;8.228;2022-12-29T04:39:05;4.23;;;2.67;;
3343;SDS011;1685;53.104;8.228;2022-12-29T04:41:32;2.80;;;2.60;;
3343;SDS011;1685;53.104;8.228;2022-12-29T04:44:00;3.10;;;2.90;;
3343;SDS011;1685;53.104;8.228;2022-12-29T04:46:27;4.93;;;2.47;;
3343;SDS011;1685;53.104;8.228;2022-12-29T04:48:54;3.23;;;2.60;;
3343;SDS011;1685;53.104;8.228;2022-12-29T04:51:21;3.80;;;2.73;;
3343;SDS011;1685;53.104;8.228;2022-12-29T04:53:48;2.00;;;1.93;;
3343;SDS011;1685;53.104;8.228;2022-12-29T04:56:15;2.30;;;2.07;;
3343;SDS011;1685;53.104;8.228;2022-12-29T04:58:42;2.20;;;1.70;;
3343;SDS011;1685;53.104;8.228;2022-12-29T05:01:10;1.60;;;1.50;;
3343;SDS011;1685;53.104;8.228;2022-12-29T05:03:37;2.27;;;1.53;;
3343;SDS011;1685;53.104;8.228;2022-12-29T05:06:04;1.73;;;1.63;;
3343;SDS011;1685;53.104;8.228;2022-12-29T05:08:31;6.20;;;1.67;;
3343;SDS011;1685;53.104;8.228;2022-12-29T05:10:58;1.60;;;1.40;;
3343;SDS011;1685;53.104;8.228;2022-12-29T05:13:25;1.93;;;1.13;;
3343;SDS011;1685;53.104;8.228;2022-12-29T05:15:53;1.63;;;1.43;;
3343;SDS011;1685;53.104;8.228;2022-12-29T05:18:21;1.60;;;1.50;;
3343;SDS011;1685;53.104;8.228;2022-12-29T05:20:48;2.00;;;1.23;;
3343;SDS011;1685;53.104;8.228;2022-12-29T05:23:15;1.87;;;1.60;;
3343;SDS011;1685;53.104;8.228;2022-12-29T05:25:43;1.20;;;1.10;;
3343;SDS011;1685;53.104;8.228;2022-12-29T05:28:11;1.47;;;1.37;;
3343;SDS011;1685;53.104;8.228;2022-12-29T05:30:38;2.47;;;1.67;;
3343;SDS011;1685;53.104;8.228;2022-12-29T05:33:05;1.80;;;1.57;;
3343;SDS011;1685;53.104;8.228;2022-12-29T05:35:33;1.30;;;1.20;;
3343;SDS011;1685;53.104;8.228;2022-12-29T05:38:00;6.20;;;1.20;;
3343;SDS011;1685;53.104;8.228;2022-12-29T05:40:27;2.50;;;1.13;;
3343;SDS011;1685;53.104;8.228;2022-12-29T05:42:54;2.03;;;1.40;;
3343;SDS011;1685;53.104;8.228;2022-12-29T05:45:21;1.33;;;1.20;;
3343;SDS011;1685;53.104;8.228;2022-12-29T05:47:48;1.93;;;1.10;;
3343;SDS011;1685;53.104;8.228;2022-12-29T05:50:15;2.43;;;1.60;;
3343;SDS011;1685;53.104;8.228;2022-12-29T05:52:44;1.37;;;1.20;;
3343;SDS011;1685;53.104;8.228;2022-12-29T05:55:11;1.13;;;1.10;;
3343;SDS011;1685;53.104;8.228;2022-12-29T05:57:38;1.03;;;1.03;;
3343;SDS011;1685;53.104;8.228;2022-12-29T06:00:05;6.83;;;1.37;;
3343;SDS011;1685;53.104;8.228;2022-12-29T06:02:33;3.80;;;1.30;;
3343;SDS011;1685;53.104;8.228;2022-12-29T06:05:00;5.80;;;1.90;;
3343;SDS011;1685;53.104;8.228;2022-12-29T06:07:27;1.80;;;1.27;;
3343;SDS011;1685;53.104;8.228;2022-12-29T06:09:56;2.53;;;1.43;;
3343;SDS011;1685;53.104;8.228;2022-12-29T06:12:22;1.40;;;1.27;;
3343;SDS011;1685;53.104;8.228;2022-12-29T06:14:49;2.17;;;1.63;;
3343;SDS011;1685;53.104;8.228;2022-12-29T06:17:16;3.13;;;1.30;;
3343;SDS011;1685;53.104;8.228;2022-12-29T06:19:43;2.60;;;1.50;;
3343;SDS011;1685;53.104;8.228;2022-12-29T06:22:10;3.53;;;1.63;;
3343;SDS011;1685;53.104;8.228;2022-12-29T06:24:38;6.93;;;1.50;;
3343;SDS011;1685;53.104;8.228;2022-12-29T06:27:06;1.50;;;1.50;;
3343;SDS011;1685;53.104;8.228;2022-12-29T06:29:33;2.33;;;1.60;;
3343;SDS011;1685;53.104;8.228;2022-12-29T06:32:02;1.60;;;1.30;;
3343;SDS011;1685;53.104;8.228;2022-12-29T06:34:29;2.10;;;1.90;;
3343;SDS011;1685;53.104;8.228;2022-12-29T06:36:56;2.87;;;2.43;;
3343;SDS011;1685;53.104;8.228;2022-12-29T06:39:23;2.23;;;2.03;;
3343;SDS011;1685;53.104;8.228;2022-12-29T06:41:51;2.93;;;2.10;;
3343;SDS011;1685;53.104;8.228;2022-12-29T06:44:20;2.20;;;1.93;;
3343;SDS011;1685;53.104;8.228;2022-12-29T06:46:46;2.83;;;1.63;;
3343;SDS011;1685;53.104;8.228;2022-12-29T06:49:14;2.10;;;1.53;;
3343;SDS011;1685;53.104;8.228;2022-12-29T06:51:41;5.43;;;1.53;;
3343;SDS011;1685;53.104;8.228;2022-12-29T06:54:08;7.53;;;1.87;;
3343;SDS011;1685;53.104;8.228;2022-12-29T06:56:35;3.13;;;2.00;;
3343;SDS011;1685;53.104;8.228;2022-12-29T06:59:02;4.10;;;1.70;;
3343;SDS011;1685;53.104;8.228;2022-12-29T07:01:31;3.00;;;2.10;;
3343;SDS011;1685;53.104;8.228;2022-12-29T07:03:57;1.90;;;1.80;;
3343;SDS011;1685;53.104;8.228;2022-12-29T07:06:24;6.00;;;1.97;;
3343;SDS011;1685;53.104;8.228;2022-12-29T07:08:51;4.33;;;1.67;;
3343;SDS011;1685;53.104;8.228;2022-12-29T07:11:20;3.57;;;1.70;;
3343;SDS011;1685;53.104;8.228;2022-12-29T07:13:47;1.73;;;1.50;;
3343;SDS011;1685;53.104;8.228;2022-12-29T07:16:14;1.47;;;1.37;;
3343;SDS011;1685;53.104;8.228;2022-12-29T07:18:43;1.77;;;1.67;;
3343;SDS011;1685;53.104;8.228;2022-12-29T07:21:10;4.33;;;3.47;;
3343;SDS011;1685;53.104;8.228;2022-12-29T07:23:37;5.33;;;1.33;;
3343;SDS011;1685;53.104;8.228;2022-12-29T07:26:04;3.47;;;1.87;;
3343;SDS011;1685;53.104;8.228;2022-12-29T07:28:32;1.67;;;1.57;;
3343;SDS011;1685;53.104;8.228;2022-12-29T07:31:00;3.10;;;1.50;;
3343;SDS011;1685;53.104;8.228;2022-12-29T07:33:28;2.10;;;1.53;;
3343;SDS011;1685;53.104;8.228;2022-12-29T07:35:56;1.90;;;1.40;;
3343;SDS011;1685;53.104;8.228;2022-12-29T07:38:23;1.77;;;1.60;;
3343;SDS011;1685;53.104;8.228;2022-12-29T07:40:50;2.57;;;1.33;;
3343;SDS011;1685;53.104;8.228;2022-12-29T07:43:17;5.03;;;1.70;;
3343;SDS011;1685;53.104;8.228;2022-12-29T07:45:44;1.77;;;1.33;;
3343;SDS011;1685;53.104;8.228;2022-12-29T07:48:11;4.97;;;1.60;;
3343;SDS011;1685;53.104;8.228;2022-12-29T07:50:38;4.80;;;1.53;;
3343;SDS011;1685;53.104;8.228;2022-12-29T07:53:07;3.73;;;1.70;;
3343;SDS011;1685;53.104;8.228;2022-12-29T07:55:33;4.33;;;1.50;;
3343;SDS011;1685;53.104;8.228;2022-12-29T07:58:00;2.60;;;1.30;;
3343;SDS011;1685;53.104;8.228;2022-12-29T08:00:28;3.00;;;1.30;;
3343;SDS011;1685;53.104;8.228;2022-12-29T08:02:55;3.00;;;1.73;;
3343;SDS011;1685;53.104;8.228;2022-12-29T08:05:22;4.60;;;1.40;;
3343;SDS011;1685;53.104;8.228;2022-12-29T08:07:48;4.83;;;1.90;;
3343;SDS011;1685;53.104;8.228;2022-12-29T08:10:17;6.00;;;1.73;;
3343;SDS011;1685;53.104;8.228;2022-12-29T08:12:44;3.30;;;1.77;;
3343;SDS011;1685;53.104;8.228;2022-12-29T08:15:11;2.83;;;1.30;;
3343;SDS011;1685;53.104;8.228;2022-12-29T08:17:38;2.83;;;1.30;;
3343;SDS011;1685;53.104;8.228;2022-12-29T08:20:06;5.33;;;1.57;;
3343;SDS011;1685;53.104;8.228;2022-12-29T08:22:33;1.47;;;1.47;;
3343;SDS011;1685;53.104;8.228;2022-12-29T08:25:00;4.90;;;1.93;;
3343;SDS011;1685;53.104;8.228;2022-12-29T08:27:29;4.77;;;1.60;;
3343;SDS011;1685;53.104;8.228;2022-12-29T08:29:55;5.73;;;1.50;;
3343;SDS011;1685;53.104;8.228;2022-12-29T08:32:22;4.67;;;1.50;;
3343;SDS011;1685;53.104;8.228;2022-12-29T08:34:50;6.73;;;1.90;;
3343;SDS011;1685;53.104;8.228;2022-12-29T08:37:17;9.10;;;1.97;;
3343;SDS011;1685;53.104;8.228;2022-12-29T08:39:44;4.47;;;1.63;;
3343;SDS011;1685;53.104;8.228;2022-12-29T08:42:11;5.27;;;2.00;;
3343;SDS011;1685;53.104;8.228;2022-12-29T08:44:39;16.77;;;3.63;;
3343;SDS011;1685;53.104;8.228;2022-12-29T08:47:06;5.20;;;2.23;;
3343;SDS011;1685;53.104;8.228;2022-12-29T08:49:33;4.43;;;2.17;;
3343;SDS011;1685;53.104;8.228;2022-12-29T08:52:00;10.30;;;2.50;;
3343;SDS011;1685;53.104;8.228;2022-12-29T08:54:28;3.53;;;2.03;;
3343;SDS011;1685;53.104;8.228;2022-12-29T08:56:55;8.47;;;1.90;;
3343;SDS011;1685;53.104;8.228;2022-12-29T08:59:22;3.80;;;1.70;;
3343;SDS011;1685;53.104;8.228;2022-12-29T09:01:50;4.17;;;1.50;;
3343;SDS011;1685;53.104;8.228;2022-12-29T09:04:17;3.07;;;1.53;;
3343;SDS011;1685;53.104;8.228;2022-12-29T09:06:44;6.03;;;1.90;;
3343;SDS011;1685;53.104;8.228;2022-12-29T09:09:11;6.23;;;2.10;;
3343;SDS011;1685;53.104;8.228;2022-12-29T09:11:39;5.47;;;1.83;;
3343;SDS011;1685;53.104;8.228;2022-12-29T09:14:06;3.40;;;1.93;;
3343;SDS011;1685;53.104;8.228;2022-12-29T09:16:33;4.57;;;2.00;;
3343;SDS011;1685;53.104;8.228;2022-12-29T09:19:02;3.50;;;1.27;;
3343;SDS011;1685;53.104;8.228;2022-12-29T09:21:29;9.10;;;2.10;;
3343;SDS011;1685;53.104;8.228;2022-12-29T09:23:56;5.27;;;1.87;;
3343;SDS011;1685;53.104;8.228;2022-12-29T09:26:23;2.97;;;1.87;;
3343;SDS011;1685;53.104;8.228;2022-12-29T09:28:50;2.73;;;1.30;;
3343;SDS011;1685;53.104;8.228;2022-12-29T09:31:17;11.77;;;2.03;;
3343;SDS011;1685;53.104;8.228;2022-12-29T09:33:44;11.20;;;2.23;;
3343;SDS011;1685;53.104;8.228;2022-12-29T09:36:13;3.73;;;2.00;;
3343;SDS011;1685;53.104;8.228;2022-12-29T09:38:39;5.87;;;1.77;;
3343;SDS011;1685;53.104;8.228;2022-12-29T09:41:10;4.50;;;1.70;;
3343;SDS011;1685;53.104;8.228;2022-12-29T09:43:51;5.53;;;2.00;;
3343;SDS011;1685;53.104;8.228;2022-12-29T09:46:26;4.20;;;1.43;;
3343;SDS011;1685;53.104;8.228;2022-12-29T09:48:55;7.50;;;1.97;;
3343;SDS011;1685;53.104;8.228;2022-12-29T09:51:37;6.87;;;1.37;;
3343;SDS011;1685;53.104;8.228;2022-12-29T09:54:14;10.23;;;1.60;;
3343;SDS011;1685;53.104;8.228;2022-12-29T09:56:49;4.30;;;1.60;;
3343;SDS011;1685;53.104;8.228;2022-12-29T09:59:17;2.30;;;1.40;;
3343;SDS011;1685;53.104;8.228;2022-12-29T10:01:49;6.30;;;1.70;;
3343;SDS011;1685;53.104;8.228;2022-12-29T10:04:19;7.13;;;1.37;;
3343;SDS011;1685;53.104;8.228;2022-12-29T10:06:50;6.20;;;1.70;;
3343;SDS011;1685;53.104;8.228;2022-12-29T10:09:22;3.97;;;1.90;;
3343;SDS011;1685;53.104;8.228;2022-12-29T10:12:01;4.10;;;1.73;;
3343;SDS011;1685;53.104;8.228;2022-12-29T10:14:44;7.70;;;1.70;;
3343;SDS011;1685;53.104;8.228;2022-12-29T10:17:23;6.23;;;1.77;;
3343;SDS011;1685;53.104;8.228;2022-12-29T10:19:57;4.63;;;1.40;;
3343;SDS011;1685;53.104;8.228;2022-12-29T10:22:42;2.13;;;1.40;;
3343;SDS011;1685;53.104;8.228;2022-12-29T10:25:22;10.03;;;2.10;;
3343;SDS011;1685;53.104;8.228;2022-12-29T10:27:51;4.47;;;1.40;;
3343;SDS011;1685;53.104;8.228;2022-12-29T10:30:21;5.90;;;1.30;;
3343;SDS011;1685;53.104;8.228;2022-12-29T10:32:48;3.40;;;1.30;;
3343;SDS011;1685;53.104;8.228;2022-12-29T10:35:19;3.70;;;1.13;;
3343;SDS011;1685;53.104;8.228;2022-12-29T10:37:50;5.40;;;1.47;;
3343;SDS011;1685;53.104;8.228;2022-12-29T10:40:24;1.43;;;1.10;;
3343;SDS011;1685;53.104;8.228;2022-12-29T10:42:53;3.17;;;1.30;;
3343;SDS011;1685;53.104;8.228;2022-12-29T10:45:23;5.27;;;1.37;;
3343;SDS011;1685;53.104;8.228;2022-12-29T10:47:53;2.60;;;1.03;;
3343;SDS011;1685;53.104;8.228;2022-12-29T10:50:26;3.27;;;1.37;;
3343;SDS011;1685;53.104;8.228;2022-12-29T10:52:55;2.60;;;1.17;;
3343;SDS011;1685;53.104;8.228;2022-12-29T10:55:26;3.03;;;1.43;;
3343;SDS011;1685;53.104;8.228;2022-12-29T10:57:56;4.70;;;1.70;;
3343;SDS011;1685;53.104;8.228;2022-12-29T11:00:30;7.40;;;2.60;;
3343;SDS011;1685;53.104;8.228;2022-12-29T11:03:10;4.00;;;1.90;;
3343;SDS011;1685;53.104;8.228;2022-12-29T11:05:57;2.20;;;1.43;;
3343;SDS011;1685;53.104;8.228;2022-12-29T11:08:33;6.20;;;3.03;;
3343;SDS011;1685;53.104;8.228;2022-12-29T11:11:03;9.73;;;1.80;;
3343;SDS011;1685;53.104;8.228;2022-12-29T11:13:31;3.67;;;1.80;;
3343;SDS011;1685;53.104;8.228;2022-12-29T11:15:59;15.93;;;1.77;;
3343;SDS011;1685;53.104;8.228;2022-12-29T11:18:31;4.83;;;1.53;;
3343;SDS011;1685;53.104;8.228;2022-12-29T11:20:59;5.43;;;1.80;;
3343;SDS011;1685;53.104;8.228;2022-12-29T11:23:29;8.63;;;2.00;;
3343;SDS011;1685;53.104;8.228;2022-12-29T11:29:03;9.07;;;1.97;;
3343;SDS011;1685;53.104;8.228;2022-12-29T11:31:46;7.93;;;2.40;;
3343;SDS011;1685;53.104;8.228;2022-12-29T11:34:18;5.47;;;1.87;;
3343;SDS011;1685;53.104;8.228;2022-12-29T11:36:46;3.80;;;1.63;;
3343;SDS011;1685;53.104;8.228;2022-12-29T11:39:23;5.53;;;1.30;;
3343;SDS011;1685;53.104;8.228;2022-12-29T11:41:53;5.63;;;1.47;;
3343;SDS011;1685;53.104;8.228;2022-12-29T11:44:21;6.83;;;1.50;;
3343;SDS011;1685;53.104;8.228;2022-12-29T11:46:49;7.97;;;1.80;;
3343;SDS011;1685;53.104;8.228;2022-12-29T11:49:19;6.73;;;1.80;;
3343;SDS011;1685;53.104;8.228;2022-12-29T11:51:48;13.97;;;2.37;;
3343;SDS011;1685;53.104;8.228;2022-12-29T11:54:18;3.90;;;1.97;;
3343;SDS011;1685;53.104;8.228;2022-12-29T11:56:50;9.70;;;1.77;;
3343;SDS011;1685;53.104;8.228;2022-12-29T11:59:23;10.10;;;2.30;;
3343;SDS011;1685;53.104;8.228;2022-12-29T12:02:03;4.63;;;2.10;;
3343;SDS011;1685;53.104;8.228;2022-12-29T12:04:41;7.97;;;1.70;;
3343;SDS011;1685;53.104;8.228;2022-12-29T12:07:10;8.33;;;1.50;;
3343;SDS011;1685;53.104;8.228;2022-12-29T12:09:41;9.20;;;1.70;;
3343;SDS011;1685;53.104;8.228;2022-12-29T12:12:15;10.07;;;1.60;;
3343;SDS011;1685;53.104;8.228;2022-12-29T12:14:50;3.73;;;1.10;;
3343;SDS011;1685;53.104;8.228;2022-12-29T12:17:22;7.50;;;1.90;;
3343;SDS011;1685;53.104;8.228;2022-12-29T12:19:58;5.30;;;1.43;;
3343;SDS011;1685;53.104;8.228;2022-12-29T12:22:29;9.37;;;1.50;;
3343;SDS011;1685;53.104;8.228;2022-12-29T12:25:01;4.30;;;1.53;;
3343;SDS011;1685;53.104;8.228;2022-12-29T12:27:36;6.10;;;1.80;;
3343;SDS011;1685;53.104;8.228;2022-12-29T12:30:10;6.33;;;1.33;;
3343;SDS011;1685;53.104;8.228;2022-12-29T12:32:41;8.30;;;1.63;;
3343;SDS011;1685;53.104;8.228;2022-12-29T12:35:15;3.93;;;1.23;;
3343;SDS011;1685;53.104;8.228;2022-12-29T12:40:51;7.33;;;2.10;;
3343;SDS011;1685;53.104;8.228;2022-12-29T12:43:34;3.40;;;1.43;;
3343;SDS011;1685;53.104;8.228;2022-12-29T12:46:24;4.00;;;1.30;;
3343;SDS011;1685;53.104;8.228;2022-12-29T12:49:11;2.87;;;1.37;;
3343;SDS011;1685;53.104;8.228;2022-12-29T12:51:50;7.53;;;1.33;;
3343;SDS011;1685;53.104;8.228;2022-12-29T12:54:28;5.33;;;1.60;;
3343;SDS011;1685;53.104;8.228;2022-12-29T12:57:09;4.03;;;1.30;;
3343;SDS011;1685;53.104;8.228;2022-12-29T12:59:46;2.80;;;1.60;;
3343;SDS011;1685;53.104;8.228;2022-12-29T13:02:30;3.60;;;1.60;;
3343;SDS011;1685;53.104;8.228;2022-12-29T13:05:17;15.00;;;1.57;;
3343;SDS011;1685;53.104;8.228;2022-12-29T13:07:55;6.63;;;1.73;;
3343;SDS011;1685;53.104;8.228;2022-12-29T13:10:34;2.43;;;1.37;;
3343;SDS011;1685;53.104;8.228;2022-12-29T13:16:06;8.87;;;2.70;;
3343;SDS011;1685;53.104;8.228;2022-12-29T13:18:42;5.50;;;1.70;;
3343;SDS011;1685;53.104;8.228;2022-12-29T13:21:18;13.40;;;2.23;;
3343;SDS011;1685;53.104;8.228;2022-12-29T13:23:54;6.60;;;1.50;;
3343;SDS011;1685;53.104;8.228;2022-12-29T13:26:27;10.10;;;2.37;;
3343;SDS011;1685;53.104;8.228;2022-12-29T13:28:58;6.57;;;1.83;;
3343;SDS011;1685;53.104;8.228;2022-12-29T13:31:33;5.43;;;2.27;;
3343;SDS011;1685;53.104;8.228;2022-12-29T13:34:11;4.83;;;1.97;;
3343;SDS011;1685;53.104;8.228;2022-12-29T13:36:46;6.43;;;1.90;;
3343;SDS011;1685;53.104;8.228;2022-12-29T13:39:19;6.13;;;2.00;;
3343;SDS011;1685;53.104;8.228;2022-12-29T13:41:49;4.17;;;1.60;;
3343;SDS011;1685;53.104;8.228;2022-12-29T13:44:20;4.03;;;1.80;;
3343;SDS011;1685;53.104;8.228;2022-12-29T13:46:50;9.07;;;2.20;;
3343;SDS011;1685;53.104;8.228;2022-12-29T13:49:20;3.30;;;1.77;;
3343;SDS011;1685;53.104;8.228;2022-12-29T13:51:49;7.30;;;2.20;;
3343;SDS011;1685;53.104;8.228;2022-12-29T13:54:23;3.77;;;1.83;;
3343;SDS011;1685;53.104;8.228;2022-12-29T13:56:56;9.07;;;2.20;;
3343;SDS011;1685;53.104;8.228;2022-12-29T13:59:34;1.90;;;1.70;;
3343;SDS011;1685;53.104;8.228;2022-12-29T14:02:10;9.87;;;2.30;;
3343;SDS011;1685;53.104;8.228;2022-12-29T14:04:55;11.40;;;2.53;;
3343;SDS011;1685;53.104;8.228;2022-12-29T14:07:23;9.30;;;2.70;;
3343;SDS011;1685;53.104;8.228;2022-12-29T14:09:50;5.13;;;2.17;;
3343;SDS011;1685;53.104;8.228;2022-12-29T14:12:28;5.77;;;2.17;;
3343;SDS011;1685;53.104;8.228;2022-12-29T14:15:02;4.60;;;1.90;;
3343;SDS011;1685;53.104;8.228;2022-12-29T14:17:43;8.37;;;2.43;;
3343;SDS011;1685;53.104;8.228;2022-12-29T14:20:16;9.13;;;1.90;;
3343;SDS011;1685;53.104;8.228;2022-12-29T14:22:55;8.07;;;2.20;;
3343;SDS011;1685;53.104;8.228;2022-12-29T14:28:35;6.70;;;2.17;;
3343;SDS011;1685;53.104;8.228;2022-12-29T14:31:04;5.87;;;1.70;;
3343;SDS011;1685;53.104;8.228;2022-12-29T14:33:33;4.03;;;1.77;;
3343;SDS011;1685;53.104;8.228;2022-12-29T14:38:46;8.97;;;2.10;;
3343;SDS011;1685;53.104;8.228;2022-12-29T14:41:18;4.20;;;2.07;;
3343;SDS011;1685;53.104;8.228;2022-12-29T14:43:53;8.13;;;2.60;;
3343;SDS011;1685;53.104;8.228;2022-12-29T14:46:23;11.73;;;2.70;;
3343;SDS011;1685;53.104;8.228;2022-12-29T14:48:55;13.30;;;2.20;;
3343;SDS011;1685;53.104;8.228;2022-12-29T14:51:28;7.10;;;2.37;;
3343;SDS011;1685;53.104;8.228;2022-12-29T14:53:57;9.67;;;2.27;;
3343;SDS011;1685;53.104;8.228;2022-12-29T14:56:25;7.40;;;2.70;;
3343;SDS011;1685;53.104;8.228;2022-12-29T14:58:56;3.77;;;1.80;;
3343;SDS011;1685;53.104;8.228;2022-12-29T15:01:30;3.57;;;2.00;;
3343;SDS011;1685;53.104;8.228;2022-12-29T15:04:12;6.57;;;2.33;;
3343;SDS011;1685;53.104;8.228;2022-12-29T15:06:42;5.60;;;1.63;;
3343;SDS011;1685;53.104;8.228;2022-12-29T15:09:12;7.80;;;2.23;;
3343;SDS011;1685;53.104;8.228;2022-12-29T15:11:51;3.30;;;2.07;;
3343;SDS011;1685;53.104;8.228;2022-12-29T15:14:30;8.23;;;3.07;;
3343;SDS011;1685;53.104;8.228;2022-12-29T15:16:59;9.90;;;2.70;;
3343;SDS011;1685;53.104;8.228;2022-12-29T15:19:28;12.23;;;2.97;;
3343;SDS011;1685;53.104;8.228;2022-12-29T15:21:54;8.63;;;2.50;;
3343;SDS011;1685;53.104;8.228;2022-12-29T15:24:23;5.47;;;2.07;;
3343;SDS011;1685;53.104;8.228;2022-12-29T15:26:51;9.70;;;3.43;;
3343;SDS011;1685;53.104;8.228;2022-12-29T15:29:29;8.33;;;2.73;;
3343;SDS011;1685;53.104;8.228;2022-12-29T15:31:58;14.37;;;3.00;;
3343;SDS011;1685;53.104;8.228;2022-12-29T15:34:30;15.17;;;3.33;;
3343;SDS011;1685;53.104;8.228;2022-12-29T15:36:57;7.93;;;4.00;;
3343;SDS011;1685;53.104;8.228;2022-12-29T15:39:27;13.70;;;2.30;;
3343;SDS011;1685;53.104;8.228;2022-12-29T15:41:56;12.57;;;3.20;;
3343;SDS011;1685;53.104;8.228;2022-12-29T15:44:29;13.53;;;3.87;;
3343;SDS011;1685;53.104;8.228;2022-12-29T15:47:01;6.50;;;2.30;;
3343;SDS011;1685;53.104;8.228;2022-12-29T15:49:30;7.90;;;2.70;;
3343;SDS011;1685;53.104;8.228;2022-12-29T15:51:57;9.63;;;2.87;;
3343;SDS011;1685;53.104;8.228;2022-12-29T15:54:24;7.43;;;2.23;;